createdAt,value
2022-12-25T00:00:49.463Z,27.35
2022-12-25T00:03:16.771Z,19.55
2022-12-25T00:05:43.464Z,21.77
2022-12-25T00:08:10.297Z,30.83
2022-12-25T00:10:43.031Z,20.48
2022-12-25T00:13:11.778Z,28.52
2022-12-25T00:15:41.292Z,24.48
2022-12-25T00:18:07.943Z,21.83
2022-12-25T00:20:34.582Z,24.67
2022-12-25T00:23:01.160Z,27.73
2022-12-25T00:25:27.819Z,23.75
2022-12-25T00:27:54.565Z,21.65
2022-12-25T00:30:21.113Z,24.40
2022-12-25T00:32:47.772Z,29.48
2022-12-25T00:35:15.152Z,24.00
2022-12-25T00:37:41.786Z,20.15
2022-12-25T00:40:09.112Z,22.45
2022-12-25T00:42:36.022Z,22.83
2022-12-25T00:45:02.671Z,21.42
2022-12-25T00:47:29.758Z,22.00
2022-12-25T00:49:56.446Z,25.88
2022-12-25T00:52:23.107Z,34.55
2022-12-25T00:54:49.755Z,32.30
2022-12-25T00:57:16.624Z,29.52
2022-12-25T00:59:43.225Z,25.38
2022-12-25T01:02:25.549Z,24.35
2022-12-25T01:04:55.501Z,25.63
2022-12-25T01:07:24.240Z,24.35
2022-12-25T01:10:09.549Z,20.70
2022-12-25T01:12:40.316Z,20.50
2022-12-25T01:15:09.228Z,24.40
2022-12-25T01:17:36.000Z,20.65
2022-12-25T01:20:03.459Z,22.23
2022-12-25T01:22:30.225Z,25.20
2022-12-25T01:24:57.009Z,22.88
2022-12-25T01:27:23.635Z,22.33
2022-12-25T01:29:50.702Z,25.55
2022-12-25T01:32:17.390Z,22.17
2022-12-25T01:34:44.059Z,17.73
2022-12-25T01:37:11.004Z,27.77
2022-12-25T01:39:37.829Z,26.17
2022-12-25T01:42:04.532Z,24.73
2022-12-25T01:44:37.641Z,20.30
2022-12-25T01:47:05.516Z,19.80
2022-12-25T01:49:36.840Z,23.90
2022-12-25T01:52:12.024Z,15.50
2022-12-25T01:54:43.401Z,20.95
2022-12-25T01:57:16.132Z,19.58
2022-12-25T01:59:43.563Z,17.00
2022-12-25T02:02:10.619Z,19.38
2022-12-25T02:04:52.000Z,20.23
2022-12-25T02:07:22.805Z,27.23
2022-12-25T02:09:49.837Z,24.98
2022-12-25T02:12:28.018Z,16.42
2022-12-25T02:15:04.830Z,19.00
2022-12-25T02:17:56.606Z,18.08
2022-12-25T02:20:35.121Z,17.63
2022-12-25T02:23:35.614Z,16.85
2022-12-25T02:26:33.064Z,21.25
2022-12-25T02:29:23.201Z,20.77
2022-12-25T02:32:01.433Z,17.60
2022-12-25T02:34:38.160Z,19.40
2022-12-25T02:37:14.725Z,18.00
2022-12-25T02:40:00.347Z,17.67
2022-12-25T02:42:51.820Z,26.30
2022-12-25T02:45:47.499Z,23.02
2022-12-25T02:48:34.755Z,20.33
2022-12-25T02:51:23.257Z,19.33
2022-12-25T02:54:13.158Z,22.40
2022-12-25T02:57:00.512Z,17.17
2022-12-25T02:59:48.392Z,22.95
2022-12-25T03:02:35.989Z,13.68
2022-12-25T03:05:26.110Z,20.30
2022-12-25T03:07:53.507Z,17.92
2022-12-25T03:10:40.638Z,22.70
2022-12-25T03:13:18.852Z,23.92
2022-12-25T03:16:05.293Z,22.85
2022-12-25T03:18:33.482Z,16.80
2022-12-25T03:21:19.112Z,17.60
2022-12-25T03:24:22.206Z,14.10
2022-12-25T03:26:55.136Z,23.42
2022-12-25T03:29:52.399Z,18.48
2022-12-25T03:32:43.249Z,22.13
2022-12-25T03:35:44.426Z,21.85
2022-12-25T03:38:42.748Z,16.50
2022-12-25T03:41:46.874Z,17.10
2022-12-25T03:44:45.392Z,17.35
2022-12-25T03:47:35.439Z,20.65
2022-12-25T03:50:36.142Z,16.40
2022-12-25T03:53:26.137Z,15.10
2022-12-25T03:56:11.862Z,15.05
2022-12-25T03:58:57.396Z,13.43
2022-12-25T04:01:46.166Z,22.45
2022-12-25T04:04:31.739Z,13.27
2022-12-25T04:07:17.511Z,16.77
2022-12-25T04:10:03.063Z,20.73
2022-12-25T04:12:48.158Z,18.75
2022-12-25T04:15:33.776Z,15.35
2022-12-25T04:18:18.992Z,18.27
2022-12-25T04:21:04.318Z,12.15
2022-12-25T04:23:49.843Z,9.98
2022-12-25T04:26:35.354Z,15.07
2022-12-25T04:29:20.700Z,10.43
2022-12-25T04:32:06.204Z,12.02
2022-12-25T04:34:51.467Z,10.40
2022-12-25T04:37:18.497Z,13.80
2022-12-25T04:39:45.256Z,10.45
2022-12-25T04:42:11.892Z,15.43
2022-12-25T04:44:38.539Z,15.30
2022-12-25T04:47:10.867Z,9.48
2022-12-25T04:49:38.261Z,9.93
2022-12-25T04:52:05.069Z,7.78
2022-12-25T04:54:31.730Z,14.77
2022-12-25T04:56:58.407Z,15.20
2022-12-25T04:59:25.123Z,12.55
2022-12-25T05:01:51.968Z,13.48
2022-12-25T05:04:18.615Z,8.15
2022-12-25T05:06:45.291Z,9.00
2022-12-25T05:09:11.909Z,15.25
2022-12-25T05:11:38.500Z,10.82
2022-12-25T05:14:05.099Z,7.97
2022-12-25T05:16:31.922Z,12.23
2022-12-25T05:18:59.764Z,10.35
2022-12-25T05:21:26.507Z,13.35
2022-12-25T05:23:53.725Z,12.43
2022-12-25T05:26:23.195Z,12.00
2022-12-25T05:28:50.252Z,10.27
2022-12-25T05:31:17.799Z,6.32
2022-12-25T05:33:44.485Z,8.98
2022-12-25T05:36:12.847Z,10.25
2022-12-25T05:38:39.891Z,6.25
2022-12-25T05:41:06.649Z,9.18
2022-12-25T05:43:33.531Z,12.35
2022-12-25T05:46:07.883Z,12.57
2022-12-25T05:51:05.739Z,9.40
2022-12-25T05:53:32.487Z,13.52
2022-12-25T05:56:02.193Z,10.23
2022-12-25T05:58:30.052Z,12.95
2022-12-25T06:00:57.300Z,8.52
2022-12-25T06:03:24.748Z,10.57
2022-12-25T06:05:51.735Z,15.45
2022-12-25T06:08:18.347Z,6.22
2022-12-25T06:10:45.014Z,16.83
2022-12-25T06:13:11.847Z,9.65
2022-12-25T06:15:40.371Z,12.93
2022-12-25T06:18:07.314Z,13.93
2022-12-25T06:20:34.333Z,13.05
2022-12-25T06:23:02.095Z,9.68
2022-12-25T06:25:28.713Z,12.43
2022-12-25T06:27:55.639Z,10.57
2022-12-25T06:30:22.437Z,13.32
2022-12-25T06:32:49.145Z,13.85
2022-12-25T06:35:15.932Z,10.15
2022-12-25T06:37:42.578Z,14.43
2022-12-25T06:40:09.564Z,8.57
2022-12-25T06:42:36.254Z,9.25
2022-12-25T06:45:02.960Z,12.00
2022-12-25T06:47:29.642Z,12.77
2022-12-25T06:49:56.362Z,13.80
2022-12-25T06:52:23.083Z,11.90
2022-12-25T06:54:49.856Z,16.98
2022-12-25T06:57:16.692Z,12.75
2022-12-25T06:59:43.395Z,11.70
2022-12-25T07:02:18.720Z,14.55
2022-12-25T07:04:46.472Z,13.82
2022-12-25T07:07:13.765Z,9.52
2022-12-25T07:09:42.387Z,10.15
2022-12-25T07:12:23.680Z,10.77
2022-12-25T07:14:54.824Z,7.88
2022-12-25T07:17:22.721Z,16.17
2022-12-25T07:19:49.689Z,10.65
2022-12-25T07:22:17.261Z,9.98
2022-12-25T07:24:44.220Z,9.03
2022-12-25T07:27:10.931Z,12.18
2022-12-25T07:29:37.686Z,12.77
2022-12-25T07:32:04.726Z,11.35
2022-12-25T07:34:31.353Z,9.25
2022-12-25T07:36:57.942Z,10.38
2022-12-25T07:39:24.567Z,7.05
2022-12-25T07:41:51.259Z,11.25
2022-12-25T07:44:18.408Z,12.25
2022-12-25T07:46:45.229Z,9.27
2022-12-25T07:49:12.299Z,7.07
2022-12-25T07:51:39.045Z,12.90
2022-12-25T07:54:05.809Z,7.15
2022-12-25T07:56:32.979Z,10.60
2022-12-25T07:58:59.671Z,6.35
2022-12-25T08:01:27.744Z,12.40
2022-12-25T08:03:56.952Z,10.77
2022-12-25T08:06:30.215Z,8.68
2022-12-25T08:09:10.141Z,10.88
2022-12-25T08:11:37.937Z,7.82
2022-12-25T08:14:14.204Z,8.98
2022-12-25T08:16:42.307Z,8.13
2022-12-25T08:19:09.683Z,12.50
2022-12-25T08:21:36.428Z,6.97
2022-12-25T08:24:03.388Z,6.40
2022-12-25T08:26:30.225Z,7.25
2022-12-25T08:28:56.918Z,11.82
2022-12-25T08:31:28.808Z,6.57
2022-12-25T08:33:57.967Z,6.93
2022-12-25T08:36:25.057Z,4.72
2022-12-25T08:38:55.584Z,10.35
2022-12-25T08:41:25.481Z,8.10
2022-12-25T08:43:52.268Z,8.48
2022-12-25T08:46:19.213Z,8.65
2022-12-25T08:48:47.385Z,10.00
2022-12-25T08:51:16.720Z,10.93
2022-12-25T08:53:45.158Z,11.55
2022-12-25T08:56:12.911Z,8.80
2022-12-25T08:58:39.619Z,7.57
2022-12-25T09:01:07.305Z,7.32
2022-12-25T09:03:35.196Z,8.63
2022-12-25T09:06:04.104Z,7.72
2022-12-25T09:08:34.425Z,5.78
2022-12-25T09:11:07.182Z,9.20
2022-12-25T09:13:36.062Z,7.50
2022-12-25T09:16:11.989Z,6.05
2022-12-25T09:18:42.472Z,7.78
2022-12-25T09:21:12.137Z,5.95
2022-12-25T09:23:39.634Z,8.13
2022-12-25T09:26:09.361Z,9.00
2022-12-25T09:28:36.926Z,11.30
2022-12-25T09:31:32.514Z,8.60
2022-12-25T09:33:59.891Z,8.05
2022-12-25T09:36:28.011Z,8.85
2022-12-25T09:38:54.746Z,11.30
2022-12-25T09:41:51.713Z,18.02
2022-12-25T09:44:27.393Z,14.30
2022-12-25T09:47:08.827Z,12.25
2022-12-25T09:49:55.006Z,12.57
2022-12-25T09:52:40.098Z,7.80
2022-12-25T09:55:21.269Z,13.95
2022-12-25T09:57:54.787Z,10.25
2022-12-25T10:00:24.613Z,8.70
2022-12-25T10:03:12.537Z,6.00
2022-12-25T10:05:42.420Z,8.88
2022-12-25T10:08:20.468Z,8.23
2022-12-25T10:11:04.283Z,10.27
2022-12-25T10:14:11.859Z,11.07
2022-12-25T10:17:28.445Z,7.03
2022-12-25T10:20:17.717Z,8.18
2022-12-25T10:22:50.207Z,9.07
2022-12-25T10:25:19.942Z,13.07
2022-12-25T10:27:50.935Z,8.65
2022-12-25T10:30:20.655Z,29.15
2022-12-25T10:32:51.560Z,20.35
2022-12-25T10:35:23.038Z,12.65
2022-12-25T10:38:01.110Z,8.48
2022-12-25T10:40:44.880Z,7.20
2022-12-25T10:43:18.905Z,9.57
2022-12-25T10:45:47.878Z,10.40
2022-12-25T10:48:33.605Z,5.60
2022-12-25T10:51:00.343Z,8.43
2022-12-25T10:53:28.956Z,7.18
2022-12-25T10:56:02.242Z,8.75
2022-12-25T10:58:30.015Z,8.20
2022-12-25T11:01:06.410Z,8.02
2022-12-25T11:03:35.954Z,8.27
2022-12-25T11:06:03.244Z,11.55
2022-12-25T11:08:33.089Z,17.20
2022-12-25T11:11:08.384Z,6.13
2022-12-25T11:13:39.880Z,10.50
2022-12-25T11:16:14.225Z,9.70
2022-12-25T11:21:16.445Z,21.92
2022-12-25T11:23:49.384Z,37.15
2022-12-25T11:26:18.136Z,8.02
2022-12-25T11:28:46.158Z,12.10
2022-12-25T11:31:21.836Z,8.35
2022-12-25T11:33:57.685Z,11.60
2022-12-25T11:36:35.121Z,26.95
2022-12-25T11:39:35.587Z,12.00
2022-12-25T11:42:14.041Z,13.25
2022-12-25T11:44:56.072Z,18.27
2022-12-25T11:47:28.144Z,11.60
2022-12-25T11:50:01.664Z,9.80
2022-12-25T11:52:33.861Z,13.63
2022-12-25T11:55:34.559Z,11.88
2022-12-25T11:58:15.449Z,10.77
2022-12-25T12:00:44.956Z,8.10
2022-12-25T12:03:37.482Z,12.90
2022-12-25T12:06:19.619Z,8.23
2022-12-25T12:08:48.573Z,9.38
2022-12-25T12:11:44.549Z,16.63
2022-12-25T12:14:45.480Z,18.15
2022-12-25T12:17:14.548Z,25.02
2022-12-25T12:19:41.281Z,28.95
2022-12-25T12:22:21.589Z,29.20
2022-12-25T12:24:55.941Z,29.48
2022-12-25T12:29:58.355Z,12.25
2022-12-25T12:32:47.646Z,12.63
2022-12-25T12:35:19.774Z,72.75
2022-12-25T12:38:00.657Z,11.95
2022-12-25T12:40:38.515Z,11.65
2022-12-25T12:43:07.200Z,10.63
2022-12-25T12:45:37.328Z,9.55
2022-12-25T12:48:22.716Z,51.55
2022-12-25T12:50:49.330Z,10.93
2022-12-25T12:53:38.124Z,12.45
2022-12-25T12:56:16.659Z,23.38
2022-12-25T12:58:50.143Z,10.00
2022-12-25T13:01:41.184Z,78.70
2022-12-25T13:04:08.761Z,31.15
2022-12-25T13:06:57.425Z,10.02
2022-12-25T13:09:39.127Z,8.65
2022-12-25T13:12:08.307Z,13.57
2022-12-25T13:14:37.971Z,9.73
2022-12-25T13:17:08.471Z,12.93
2022-12-25T13:19:36.475Z,12.68
2022-12-25T13:22:05.481Z,6.30
2022-12-25T13:24:34.674Z,9.35
2022-12-25T13:27:20.643Z,9.23
2022-12-25T13:29:47.512Z,16.08
2022-12-25T13:32:21.916Z,12.60
2022-12-25T13:37:28.294Z,14.30
2022-12-25T13:40:01.181Z,9.13
2022-12-25T13:42:36.440Z,24.65
2022-12-25T13:45:06.620Z,12.07
2022-12-25T13:47:49.960Z,7.50
2022-12-25T13:50:24.546Z,25.55
2022-12-25T13:52:52.336Z,20.42
2022-12-25T13:55:28.815Z,10.80
2022-12-25T13:58:03.747Z,9.70
2022-12-25T14:00:40.173Z,11.80
2022-12-25T14:03:14.684Z,12.93
2022-12-25T14:05:43.276Z,11.52
2022-12-25T14:08:21.723Z,13.65
2022-12-25T14:10:50.245Z,12.95
2022-12-25T14:13:19.791Z,9.88
2022-12-25T14:15:48.848Z,8.40
2022-12-25T14:18:21.378Z,15.80
2022-12-25T14:21:21.256Z,13.02
2022-12-25T14:23:49.698Z,8.57
2022-12-25T14:26:18.483Z,9.07
2022-12-25T14:28:54.184Z,7.63
2022-12-25T14:31:21.858Z,13.27
2022-12-25T14:33:49.307Z,17.75
2022-12-25T14:36:16.304Z,39.30
2022-12-25T14:38:44.040Z,23.25
2022-12-25T14:41:25.759Z,15.05
2022-12-25T14:43:55.099Z,15.52
2022-12-25T14:46:28.272Z,15.52
2022-12-25T14:49:07.064Z,23.48
2022-12-25T14:51:38.810Z,22.83
2022-12-25T14:54:15.203Z,17.02
2022-12-25T14:56:48.168Z,22.17
2022-12-25T14:59:19.611Z,17.38
2022-12-25T15:01:53.275Z,17.40
2022-12-25T15:04:22.247Z,10.50
2022-12-25T15:07:00.481Z,9.82
2022-12-25T15:09:30.016Z,7.55
2022-12-25T15:11:57.171Z,11.77
2022-12-25T15:14:25.397Z,9.10
2022-12-25T15:16:57.991Z,12.25
2022-12-25T15:19:38.701Z,12.20
2022-12-25T15:22:06.043Z,8.32
2022-12-25T15:24:32.769Z,8.18
2022-12-25T15:27:00.708Z,11.48
2022-12-25T15:30:07.395Z,10.50
2022-12-25T15:32:21.371Z,10.05
2022-12-25T15:34:49.869Z,9.10
2022-12-25T15:37:17.829Z,16.08
2022-12-25T15:39:45.200Z,14.10
2022-12-25T15:42:18.564Z,12.93
2022-12-25T15:44:45.956Z,13.52
2022-12-25T15:47:14.204Z,12.98
2022-12-25T15:49:41.657Z,15.90
2022-12-25T15:52:12.587Z,8.70
2022-12-25T15:54:39.287Z,9.10
2022-12-25T15:57:14.288Z,9.32
2022-12-25T15:59:41.065Z,7.47
2022-12-25T16:02:19.563Z,10.32
2022-12-25T16:04:47.545Z,9.93
2022-12-25T16:07:16.398Z,9.18
2022-12-25T16:09:43.476Z,15.50
2022-12-25T16:12:10.499Z,10.45
2022-12-25T16:14:37.460Z,16.85
2022-12-25T16:17:04.838Z,12.20
2022-12-25T16:19:31.775Z,9.98
2022-12-25T16:21:58.475Z,13.55
2022-12-25T16:24:25.126Z,13.15
2022-12-25T16:26:51.764Z,14.52
2022-12-25T16:29:18.449Z,16.27
2022-12-25T16:31:45.188Z,23.38
2022-12-25T16:34:11.892Z,14.10
2022-12-25T16:36:39.050Z,13.98
2022-12-25T16:39:06.972Z,31.08
2022-12-25T16:41:34.580Z,13.52
2022-12-25T16:44:11.108Z,14.57
2022-12-25T16:46:39.497Z,19.77
2022-12-25T16:49:06.468Z,18.92
2022-12-25T16:51:33.219Z,37.90
2022-12-25T16:53:59.954Z,28.35
2022-12-25T16:56:28.346Z,38.92
2022-12-25T16:58:56.375Z,40.83
2022-12-25T17:01:23.679Z,56.85
2022-12-25T17:03:51.176Z,75.32
2022-12-25T17:06:25.692Z,67.15
2022-12-25T17:08:58.849Z,70.05
2022-12-25T17:11:29.735Z,52.78
2022-12-25T17:13:57.756Z,84.65
2022-12-25T17:16:29.775Z,324.42
2022-12-25T17:19:01.575Z,148.55
2022-12-25T17:21:29.326Z,163.98
2022-12-25T17:24:02.099Z,149.43
2022-12-25T17:26:31.762Z,122.70
2022-12-25T17:28:58.732Z,157.80
2022-12-25T17:31:25.499Z,126.97
2022-12-25T17:33:52.251Z,144.07
2022-12-25T17:36:23.240Z,207.25
2022-12-25T17:38:50.076Z,136.68
2022-12-25T17:41:17.870Z,102.65
2022-12-25T17:43:45.706Z,106.47
2022-12-25T17:46:21.626Z,93.72
2022-12-25T17:48:50.090Z,125.57
2022-12-25T17:51:22.021Z,121.38
2022-12-25T17:53:54.214Z,128.23
2022-12-25T17:56:22.855Z,78.20
2022-12-25T17:58:51.672Z,79.35
2022-12-25T18:01:19.053Z,101.97
2022-12-25T18:03:46.759Z,94.32
2022-12-25T18:06:16.619Z,80.20
2022-12-25T18:08:44.913Z,86.53
2022-12-25T18:11:15.288Z,85.07
2022-12-25T18:13:44.759Z,97.10
2022-12-25T18:16:13.364Z,72.63
2022-12-25T18:18:40.734Z,61.90
2022-12-25T18:21:08.552Z,47.45
2022-12-25T18:23:35.921Z,72.20
2022-12-25T18:26:04.108Z,42.45
2022-12-25T18:28:31.151Z,72.72
2022-12-25T18:30:58.003Z,83.57
2022-12-25T18:33:25.290Z,25.25
2022-12-25T18:35:57.854Z,62.97
2022-12-25T18:38:24.601Z,73.38
2022-12-25T18:40:51.432Z,45.55
2022-12-25T18:43:18.221Z,40.85
2022-12-25T18:45:44.870Z,87.55
2022-12-25T18:48:11.575Z,80.32
2022-12-25T18:50:40.409Z,46.40
2022-12-25T18:53:07.228Z,70.30
2022-12-25T18:55:33.912Z,58.55
2022-12-25T18:58:01.232Z,85.70
2022-12-25T19:00:28.221Z,66.20
2022-12-25T19:02:59.113Z,66.78
2022-12-25T19:05:26.442Z,74.22
2022-12-25T19:07:53.252Z,56.63
2022-12-25T19:10:19.920Z,83.57
2022-12-25T19:12:46.769Z,81.60
2022-12-25T19:15:14.182Z,125.15
2022-12-25T19:17:40.930Z,86.25
2022-12-25T19:20:08.357Z,67.85
2022-12-25T19:22:35.495Z,83.25
2022-12-25T19:25:02.406Z,72.75
2022-12-25T19:27:29.229Z,104.30
2022-12-25T19:29:55.889Z,66.00
2022-12-25T19:32:22.820Z,72.25
2022-12-25T19:34:49.594Z,93.47
2022-12-25T19:37:16.382Z,71.88
2022-12-25T19:39:46.870Z,79.72
2022-12-25T19:42:15.820Z,87.70
2022-12-25T19:44:43.488Z,128.80
2022-12-25T19:47:10.963Z,72.68
2022-12-25T19:49:40.670Z,62.03
2022-12-25T19:52:07.660Z,62.05
2022-12-25T19:54:34.334Z,50.78
2022-12-25T19:57:01.011Z,80.03
2022-12-25T19:59:27.844Z,53.90
2022-12-25T20:01:54.738Z,56.25
2022-12-25T20:04:21.981Z,45.83
2022-12-25T20:06:48.647Z,47.20
2022-12-25T20:09:21.069Z,66.13
2022-12-25T20:11:48.677Z,47.67
2022-12-25T20:14:16.778Z,68.53
2022-12-25T20:16:44.165Z,58.75
2022-12-25T20:19:12.631Z,68.32
2022-12-25T20:21:40.157Z,49.55
2022-12-25T20:24:10.037Z,47.60
2022-12-25T20:26:37.543Z,42.08
2022-12-25T20:29:04.479Z,45.55
2022-12-25T20:31:33.018Z,36.10
2022-12-25T20:34:08.456Z,42.17
2022-12-25T20:36:37.769Z,33.95
2022-12-25T20:39:08.537Z,33.08
2022-12-25T20:41:37.855Z,31.48
2022-12-25T20:44:06.349Z,32.30
2022-12-25T20:46:33.078Z,31.83
2022-12-25T20:49:02.243Z,24.13
2022-12-25T20:51:28.949Z,31.05
2022-12-25T20:53:56.265Z,33.35
2022-12-25T20:56:25.056Z,33.10
2022-12-25T20:58:56.320Z,50.25
2022-12-25T21:01:23.464Z,38.42
2022-12-25T21:03:50.680Z,24.00
2022-12-25T21:06:17.434Z,32.58
2022-12-25T21:08:44.261Z,38.47
2022-12-25T21:11:11.537Z,34.25
2022-12-25T21:13:40.542Z,28.45
2022-12-25T21:16:09.966Z,26.85
2022-12-25T21:18:37.203Z,39.08
2022-12-25T21:21:07.261Z,42.72
2022-12-25T21:23:36.255Z,42.67
2022-12-25T21:26:22.977Z,28.45
2022-12-25T21:28:51.930Z,40.88
2022-12-25T21:31:19.490Z,32.03
2022-12-25T21:33:52.958Z,31.60
2022-12-25T21:36:29.337Z,27.35
2022-12-25T21:39:05.947Z,23.27
2022-12-25T21:41:34.524Z,22.75
2022-12-25T21:44:01.846Z,23.10
2022-12-25T21:46:29.315Z,23.15
2022-12-25T21:48:56.566Z,24.88
2022-12-25T21:51:44.989Z,26.15
2022-12-25T21:54:12.971Z,23.23
2022-12-25T21:56:45.019Z,23.48
2022-12-25T21:59:15.746Z,23.05
2022-12-25T22:01:43.831Z,23.48
2022-12-25T22:04:11.750Z,22.27
2022-12-25T22:06:57.050Z,23.73
2022-12-25T22:09:23.900Z,18.98
2022-12-25T22:12:09.093Z,18.23
2022-12-25T22:14:54.332Z,18.92
2022-12-25T22:17:55.693Z,23.88
2022-12-25T22:20:28.371Z,19.17
2022-12-25T22:22:55.678Z,16.42
2022-12-25T22:25:23.688Z,12.95
2022-12-25T22:27:51.213Z,14.10
2022-12-25T22:30:23.584Z,12.82
2022-12-25T22:32:51.871Z,12.40
2022-12-25T22:35:19.098Z,15.38
2022-12-25T22:37:46.296Z,15.40
2022-12-25T22:40:16.478Z,18.27
2022-12-25T22:42:43.744Z,12.73
2022-12-25T22:45:12.047Z,13.55
2022-12-25T22:47:38.740Z,12.13
2022-12-25T22:50:06.037Z,13.50
2022-12-25T22:52:32.719Z,13.73
2022-12-25T22:54:59.489Z,16.25
2022-12-25T22:57:26.175Z,13.55
2022-12-25T22:59:53.187Z,11.70
2022-12-25T23:02:20.256Z,12.60
2022-12-25T23:04:47.098Z,14.10
2022-12-25T23:07:15.063Z,11.68
2022-12-25T23:09:43.026Z,12.52
2022-12-25T23:12:32.967Z,11.13
2022-12-25T23:15:00.072Z,12.57
2022-12-25T23:17:45.529Z,14.23
2022-12-25T23:20:32.971Z,12.90
2022-12-25T23:23:18.229Z,11.45
2022-12-25T23:26:03.764Z,11.25
2022-12-25T23:28:48.811Z,12.07
2022-12-25T23:31:15.656Z,11.32
2022-12-25T23:33:42.308Z,13.23
2022-12-25T23:36:09.236Z,10.73
2022-12-25T23:38:36.000Z,11.02
2022-12-25T23:41:02.837Z,10.88
2022-12-25T23:43:29.608Z,11.30
2022-12-25T23:45:56.246Z,11.32
2022-12-25T23:48:22.865Z,12.25
2022-12-25T23:50:49.474Z,11.23
2022-12-25T23:53:16.076Z,10.77
2022-12-25T23:55:43.432Z,10.88
2022-12-25T23:58:10.138Z,10.38
